sensor_id;sensor_type;location;lat;lon;timestamp;temperature;humidity
7388;DHT22;3735;50.136;11.062;2023-04-08T00:02:03;6.40;99.90
7388;DHT22;3735;50.136;11.062;2023-04-08T00:04:29;6.40;99.90
7388;DHT22;3735;50.136;11.062;2023-04-08T00:06:55;6.40;99.90
7388;DHT22;3735;50.136;11.062;2023-04-08T00:09:22;6.30;99.90
7388;DHT22;3735;50.136;11.062;2023-04-08T00:11:47;6.30;99.90
7388;DHT22;3735;50.136;11.062;2023-04-08T00:14:13;6.20;99.90
7388;DHT22;3735;50.136;11.062;2023-04-08T00:16:39;6.20;99.90
7388;DHT22;3735;50.136;11.062;2023-04-08T00:19:05;6.10;99.90
7388;DHT22;3735;50.136;11.062;2023-04-08T00:21:31;6.20;99.90
7388;DHT22;3735;50.136;11.062;2023-04-08T00:23:57;6.20;99.90
7388;DHT22;3735;50.136;11.062;2023-04-08T00:26:22;6.20;99.90
7388;DHT22;3735;50.136;11.062;2023-04-08T00:28:48;6.20;99.90
7388;DHT22;3735;50.136;11.062;2023-04-08T00:31:14;6.20;99.90
7388;DHT22;3735;50.136;11.062;2023-04-08T00:33:40;6.20;99.90
7388;DHT22;3735;50.136;11.062;2023-04-08T00:36:05;6.20;99.90
7388;DHT22;3735;50.136;11.062;2023-04-08T00:38:31;6.20;99.90
7388;DHT22;3735;50.136;11.062;2023-04-08T00:40:57;6.20;99.90
7388;DHT22;3735;50.136;11.062;2023-04-08T00:43:23;6.20;99.90
7388;DHT22;3735;50.136;11.062;2023-04-08T00:45:49;6.20;99.90
7388;DHT22;3735;50.136;11.062;2023-04-08T00:48:14;6.10;99.90
7388;DHT22;3735;50.136;11.062;2023-04-08T00:50:42;6.20;99.90
7388;DHT22;3735;50.136;11.062;2023-04-08T00:53:08;6.20;99.90
7388;DHT22;3735;50.136;11.062;2023-04-08T00:55:34;6.10;99.90
7388;DHT22;3735;50.136;11.062;2023-04-08T00:58:00;6.10;99.90
7388;DHT22;3735;50.136;11.062;2023-04-08T01:00:29;6.10;99.90
7388;DHT22;3735;50.136;11.062;2023-04-08T01:03:13;6.10;99.90
7388;DHT22;3735;50.136;11.062;2023-04-08T01:06:12;6.10;99.90
7388;DHT22;3735;50.136;11.062;2023-04-08T01:08:47;6.10;99.90
7388;DHT22;3735;50.136;11.062;2023-04-08T01:11:16;6.10;99.90
7388;DHT22;3735;50.136;11.062;2023-04-08T01:13:44;6.10;99.90
7388;DHT22;3735;50.136;11.062;2023-04-08T01:16:13;6.00;99.90
7388;DHT22;3735;50.136;11.062;2023-04-08T01:18:42;6.00;99.90
7388;DHT22;3735;50.136;11.062;2023-04-08T01:21:11;5.90;99.90
7388;DHT22;3735;50.136;11.062;2023-04-08T01:24:25;5.90;99.90
7388;DHT22;3735;50.136;11.062;2023-04-08T01:26:46;5.70;99.90
7388;DHT22;3735;50.136;11.062;2023-04-08T01:29:13;5.60;99.90
7388;DHT22;3735;50.136;11.062;2023-04-08T01:31:40;5.50;99.90
7388;DHT22;3735;50.136;11.062;2023-04-08T01:34:08;5.40;99.90
7388;DHT22;3735;50.136;11.062;2023-04-08T01:36:37;5.30;99.90
7388;DHT22;3735;50.136;11.062;2023-04-08T01:39:04;5.10;99.90
7388;DHT22;3735;50.136;11.062;2023-04-08T01:41:35;5.00;99.90
7388;DHT22;3735;50.136;11.062;2023-04-08T01:44:03;4.80;99.90
7388;DHT22;3735;50.136;11.062;2023-04-08T01:46:30;4.70;99.90
7388;DHT22;3735;50.136;11.062;2023-04-08T01:48:58;4.60;99.90
7388;DHT22;3735;50.136;11.062;2023-04-08T01:51:25;4.40;99.90
7388;DHT22;3735;50.136;11.062;2023-04-08T01:53:52;4.30;99.90
7388;DHT22;3735;50.136;11.062;2023-04-08T01:56:20;4.10;99.90
7388;DHT22;3735;50.136;11.062;2023-04-08T01:58:51;4.00;99.90
7388;DHT22;3735;50.136;11.062;2023-04-08T02:01:21;3.90;99.90
7388;DHT22;3735;50.136;11.062;2023-04-08T02:03:52;3.90;99.90
7388;DHT22;3735;50.136;11.062;2023-04-08T02:06:22;3.80;99.90
7388;DHT22;3735;50.136;11.062;2023-04-08T02:08:48;3.80;99.90
7388;DHT22;3735;50.136;11.062;2023-04-08T02:11:14;3.80;99.90
7388;DHT22;3735;50.136;11.062;2023-04-08T02:13:40;3.80;99.90
7388;DHT22;3735;50.136;11.062;2023-04-08T02:16:22;3.80;99.90
7388;DHT22;3735;50.136;11.062;2023-04-08T02:19:14;3.90;99.90
7388;DHT22;3735;50.136;11.062;2023-04-08T02:21:56;3.90;99.90
7388;DHT22;3735;50.136;11.062;2023-04-08T02:24:26;4.00;99.90
7388;DHT22;3735;50.136;11.062;2023-04-08T02:26:55;4.00;99.90
7388;DHT22;3735;50.136;11.062;2023-04-08T02:29:21;4.00;99.90
7388;DHT22;3735;50.136;11.062;2023-04-08T02:31:49;4.00;99.90
7388;DHT22;3735;50.136;11.062;2023-04-08T02:34:16;3.90;99.90
7388;DHT22;3735;50.136;11.062;2023-04-08T02:36:46;3.90;99.90
7388;DHT22;3735;50.136;11.062;2023-04-08T02:39:12;3.80;99.90
7388;DHT22;3735;50.136;11.062;2023-04-08T02:41:38;3.80;99.90
7388;DHT22;3735;50.136;11.062;2023-04-08T02:44:04;3.90;99.90
7388;DHT22;3735;50.136;11.062;2023-04-08T02:46:30;4.00;99.90
7388;DHT22;3735;50.136;11.062;2023-04-08T02:48:55;4.10;99.90
7388;DHT22;3735;50.136;11.062;2023-04-08T02:51:21;4.10;99.90
7388;DHT22;3735;50.136;11.062;2023-04-08T02:53:47;4.30;99.90
7388;DHT22;3735;50.136;11.062;2023-04-08T02:56:13;4.40;99.90
7388;DHT22;3735;50.136;11.062;2023-04-08T02:58:38;4.50;99.90
7388;DHT22;3735;50.136;11.062;2023-04-08T03:01:04;4.60;99.90
7388;DHT22;3735;50.136;11.062;2023-04-08T03:03:31;4.70;99.90
7388;DHT22;3735;50.136;11.062;2023-04-08T03:05:56;4.80;99.90
7388;DHT22;3735;50.136;11.062;2023-04-08T03:08:23;4.90;99.90
7388;DHT22;3735;50.136;11.062;2023-04-08T03:10:49;4.90;99.90
7388;DHT22;3735;50.136;11.062;2023-04-08T03:13:15;5.00;99.90
7388;DHT22;3735;50.136;11.062;2023-04-08T03:15:42;5.00;99.90
7388;DHT22;3735;50.136;11.062;2023-04-08T03:18:07;5.00;99.90
7388;DHT22;3735;50.136;11.062;2023-04-08T03:20:33;5.10;99.90
7388;DHT22;3735;50.136;11.062;2023-04-08T03:22:59;5.10;99.90
7388;DHT22;3735;50.136;11.062;2023-04-08T03:25:28;5.10;99.90
7388;DHT22;3735;50.136;11.062;2023-04-08T03:27:54;5.00;99.90
7388;DHT22;3735;50.136;11.062;2023-04-08T03:30:20;5.00;99.90
7388;DHT22;3735;50.136;11.062;2023-04-08T03:32:46;4.90;99.90
7388;DHT22;3735;50.136;11.062;2023-04-08T03:35:12;4.80;99.90
7388;DHT22;3735;50.136;11.062;2023-04-08T03:37:38;4.70;99.90
7388;DHT22;3735;50.136;11.062;2023-04-08T03:40:04;4.60;99.90
7388;DHT22;3735;50.136;11.062;2023-04-08T03:42:30;4.40;99.90
7388;DHT22;3735;50.136;11.062;2023-04-08T03:44:56;4.30;99.90
7388;DHT22;3735;50.136;11.062;2023-04-08T03:47:23;4.20;99.90
7388;DHT22;3735;50.136;11.062;2023-04-08T03:49:48;4.20;99.90
7388;DHT22;3735;50.136;11.062;2023-04-08T03:52:14;4.10;99.90
7388;DHT22;3735;50.136;11.062;2023-04-08T03:54:40;4.00;99.90
7388;DHT22;3735;50.136;11.062;2023-04-08T03:57:05;3.90;99.90
7388;DHT22;3735;50.136;11.062;2023-04-08T03:59:31;3.90;99.90
7388;DHT22;3735;50.136;11.062;2023-04-08T04:01:58;3.80;99.90
7388;DHT22;3735;50.136;11.062;2023-04-08T04:04:24;3.80;99.90
7388;DHT22;3735;50.136;11.062;2023-04-08T04:06:52;3.80;99.90
7388;DHT22;3735;50.136;11.062;2023-04-08T04:09:18;3.70;99.90
7388;DHT22;3735;50.136;11.062;2023-04-08T04:11:44;3.70;99.90
7388;DHT22;3735;50.136;11.062;2023-04-08T04:14:10;3.70;99.90
7388;DHT22;3735;50.136;11.062;2023-04-08T04:16:36;3.70;99.90
7388;DHT22;3735;50.136;11.062;2023-04-08T04:19:02;3.70;99.90
7388;DHT22;3735;50.136;11.062;2023-04-08T04:21:28;3.70;99.90
7388;DHT22;3735;50.136;11.062;2023-04-08T04:23:53;3.70;99.90
7388;DHT22;3735;50.136;11.062;2023-04-08T04:26:19;3.70;99.90
7388;DHT22;3735;50.136;11.062;2023-04-08T04:28:45;3.70;99.90
7388;DHT22;3735;50.136;11.062;2023-04-08T04:31:21;3.70;99.90
7388;DHT22;3735;50.136;11.062;2023-04-08T04:33:54;3.70;99.90
7388;DHT22;3735;50.136;11.062;2023-04-08T04:36:20;3.70;99.90
7388;DHT22;3735;50.136;11.062;2023-04-08T04:38:46;3.60;99.90
7388;DHT22;3735;50.136;11.062;2023-04-08T04:41:11;3.70;99.90
7388;DHT22;3735;50.136;11.062;2023-04-08T04:43:37;3.70;99.90
7388;DHT22;3735;50.136;11.062;2023-04-08T04:46:03;3.60;99.90
7388;DHT22;3735;50.136;11.062;2023-04-08T04:48:32;3.70;99.90
7388;DHT22;3735;50.136;11.062;2023-04-08T04:50:59;3.70;99.90
7388;DHT22;3735;50.136;11.062;2023-04-08T04:53:29;3.70;99.90
7388;DHT22;3735;50.136;11.062;2023-04-08T04:55:55;3.70;99.90
7388;DHT22;3735;50.136;11.062;2023-04-08T04:58:21;3.70;99.90
7388;DHT22;3735;50.136;11.062;2023-04-08T05:00:47;3.70;99.90
7388;DHT22;3735;50.136;11.062;2023-04-08T05:03:13;3.70;99.90
7388;DHT22;3735;50.136;11.062;2023-04-08T05:05:38;3.70;99.90
7388;DHT22;3735;50.136;11.062;2023-04-08T05:08:05;3.80;99.90
7388;DHT22;3735;50.136;11.062;2023-04-08T05:10:32;3.80;99.90
7388;DHT22;3735;50.136;11.062;2023-04-08T05:12:57;3.80;99.90
7388;DHT22;3735;50.136;11.062;2023-04-08T05:15:23;3.80;99.90
7388;DHT22;3735;50.136;11.062;2023-04-08T05:17:49;3.80;99.90
7388;DHT22;3735;50.136;11.062;2023-04-08T05:20:15;3.80;99.90
7388;DHT22;3735;50.136;11.062;2023-04-08T05:22:41;3.90;99.90
7388;DHT22;3735;50.136;11.062;2023-04-08T05:25:18;3.90;99.90
7388;DHT22;3735;50.136;11.062;2023-04-08T05:27:44;4.00;99.90
7388;DHT22;3735;50.136;11.062;2023-04-08T05:30:12;4.00;99.90
7388;DHT22;3735;50.136;11.062;2023-04-08T05:32:38;4.00;99.90
7388;DHT22;3735;50.136;11.062;2023-04-08T05:35:04;4.10;99.90
7388;DHT22;3735;50.136;11.062;2023-04-08T05:37:30;4.10;99.90
7388;DHT22;3735;50.136;11.062;2023-04-08T05:39:56;4.10;99.90
7388;DHT22;3735;50.136;11.062;2023-04-08T05:42:21;4.20;99.90
7388;DHT22;3735;50.136;11.062;2023-04-08T05:44:47;4.30;99.90
7388;DHT22;3735;50.136;11.062;2023-04-08T05:47:13;4.30;99.90
7388;DHT22;3735;50.136;11.062;2023-04-08T05:49:39;4.30;99.90
7388;DHT22;3735;50.136;11.062;2023-04-08T05:52:05;4.40;99.90
7388;DHT22;3735;50.136;11.062;2023-04-08T05:54:31;4.50;99.90
7388;DHT22;3735;50.136;11.062;2023-04-08T05:56:57;4.60;99.90
7388;DHT22;3735;50.136;11.062;2023-04-08T05:59:23;4.80;99.90
7388;DHT22;3735;50.136;11.062;2023-04-08T06:01:49;4.90;99.90
7388;DHT22;3735;50.136;11.062;2023-04-08T06:04:14;5.20;99.90
7388;DHT22;3735;50.136;11.062;2023-04-08T06:06:42;5.40;99.90
7388;DHT22;3735;50.136;11.062;2023-04-08T06:09:08;5.40;99.90
7388;DHT22;3735;50.136;11.062;2023-04-08T06:11:36;5.50;99.90
7388;DHT22;3735;50.136;11.062;2023-04-08T06:14:02;5.50;99.90
7388;DHT22;3735;50.136;11.062;2023-04-08T06:16:28;5.60;99.90
7388;DHT22;3735;50.136;11.062;2023-04-08T06:18:53;5.60;99.90
7388;DHT22;3735;50.136;11.062;2023-04-08T06:21:19;5.60;99.90
7388;DHT22;3735;50.136;11.062;2023-04-08T06:23:45;5.60;99.90
7388;DHT22;3735;50.136;11.062;2023-04-08T06:26:11;5.60;99.90
7388;DHT22;3735;50.136;11.062;2023-04-08T06:28:37;5.60;99.90
7388;DHT22;3735;50.136;11.062;2023-04-08T06:31:03;5.50;99.90
7388;DHT22;3735;50.136;11.062;2023-04-08T06:33:29;5.50;99.90
7388;DHT22;3735;50.136;11.062;2023-04-08T06:36:05;5.40;99.90
7388;DHT22;3735;50.136;11.062;2023-04-08T06:38:32;5.40;99.90
7388;DHT22;3735;50.136;11.062;2023-04-08T06:41:02;5.50;99.90
7388;DHT22;3735;50.136;11.062;2023-04-08T06:43:29;5.50;99.90
7388;DHT22;3735;50.136;11.062;2023-04-08T06:45:55;5.60;99.90
7388;DHT22;3735;50.136;11.062;2023-04-08T06:48:21;5.70;99.90
7388;DHT22;3735;50.136;11.062;2023-04-08T06:50:57;5.70;99.90
7388;DHT22;3735;50.136;11.062;2023-04-08T06:53:25;5.70;99.90
7388;DHT22;3735;50.136;11.062;2023-04-08T06:55:53;5.90;99.90
7388;DHT22;3735;50.136;11.062;2023-04-08T06:58:19;5.80;99.90
7388;DHT22;3735;50.136;11.062;2023-04-08T07:00:45;5.90;99.90
7388;DHT22;3735;50.136;11.062;2023-04-08T07:03:11;5.90;99.90
7388;DHT22;3735;50.136;11.062;2023-04-08T07:05:37;6.00;99.90
7388;DHT22;3735;50.136;11.062;2023-04-08T07:08:04;6.20;99.90
7388;DHT22;3735;50.136;11.062;2023-04-08T07:10:31;6.30;99.90
7388;DHT22;3735;50.136;11.062;2023-04-08T07:12:56;6.30;99.90
7388;DHT22;3735;50.136;11.062;2023-04-08T07:15:22;6.40;99.90
7388;DHT22;3735;50.136;11.062;2023-04-08T07:17:48;6.40;99.90
7388;DHT22;3735;50.136;11.062;2023-04-08T07:20:14;6.30;99.90
7388;DHT22;3735;50.136;11.062;2023-04-08T07:22:40;6.20;99.90
7388;DHT22;3735;50.136;11.062;2023-04-08T07:25:06;6.20;99.90
7388;DHT22;3735;50.136;11.062;2023-04-08T07:27:35;6.10;99.90
7388;DHT22;3735;50.136;11.062;2023-04-08T07:30:01;6.00;99.90
7388;DHT22;3735;50.136;11.062;2023-04-08T07:32:27;6.10;99.90
7388;DHT22;3735;50.136;11.062;2023-04-08T07:34:53;6.10;99.90
7388;DHT22;3735;50.136;11.062;2023-04-08T07:37:19;6.10;99.90
7388;DHT22;3735;50.136;11.062;2023-04-08T07:39:44;6.20;99.90
7388;DHT22;3735;50.136;11.062;2023-04-08T07:42:10;6.30;99.90
7388;DHT22;3735;50.136;11.062;2023-04-08T07:44:36;6.40;99.90
7388;DHT22;3735;50.136;11.062;2023-04-08T07:47:05;6.60;99.90
7388;DHT22;3735;50.136;11.062;2023-04-08T07:49:30;6.80;99.90
7388;DHT22;3735;50.136;11.062;2023-04-08T07:51:56;7.00;99.90
7388;DHT22;3735;50.136;11.062;2023-04-08T07:54:22;7.20;99.90
7388;DHT22;3735;50.136;11.062;2023-04-08T07:56:48;7.40;99.90
7388;DHT22;3735;50.136;11.062;2023-04-08T07:59:13;7.60;99.90
7388;DHT22;3735;50.136;11.062;2023-04-08T08:01:39;7.80;99.90
7388;DHT22;3735;50.136;11.062;2023-04-08T08:04:05;7.80;99.90
7388;DHT22;3735;50.136;11.062;2023-04-08T08:06:31;7.90;99.90
7388;DHT22;3735;50.136;11.062;2023-04-08T08:08:57;7.90;99.90
7388;DHT22;3735;50.136;11.062;2023-04-08T08:11:23;7.90;99.90
7388;DHT22;3735;50.136;11.062;2023-04-08T08:13:49;8.00;99.90
7388;DHT22;3735;50.136;11.062;2023-04-08T08:16:14;7.80;99.90
7388;DHT22;3735;50.136;11.062;2023-04-08T08:18:41;7.80;99.90
7388;DHT22;3735;50.136;11.062;2023-04-08T08:21:07;7.70;99.90
7388;DHT22;3735;50.136;11.062;2023-04-08T08:23:33;7.80;99.90
7388;DHT22;3735;50.136;11.062;2023-04-08T08:26:06;7.90;99.90
7388;DHT22;3735;50.136;11.062;2023-04-08T08:28:35;8.20;99.90
7388;DHT22;3735;50.136;11.062;2023-04-08T08:31:01;8.30;99.90
7388;DHT22;3735;50.136;11.062;2023-04-08T08:33:28;8.40;99.90
7388;DHT22;3735;50.136;11.062;2023-04-08T08:35:53;8.40;99.90
7388;DHT22;3735;50.136;11.062;2023-04-08T08:38:20;8.40;99.90
7388;DHT22;3735;50.136;11.062;2023-04-08T08:40:46;8.70;99.90
7388;DHT22;3735;50.136;11.062;2023-04-08T08:43:11;9.20;99.90
7388;DHT22;3735;50.136;11.062;2023-04-08T08:45:41;9.60;99.90
7388;DHT22;3735;50.136;11.062;2023-04-08T08:48:08;9.90;99.90
7388;DHT22;3735;50.136;11.062;2023-04-08T08:50:34;10.00;99.90
7388;DHT22;3735;50.136;11.062;2023-04-08T08:53:00;10.10;99.90
7388;DHT22;3735;50.136;11.062;2023-04-08T08:55:29;10.40;99.90
7388;DHT22;3735;50.136;11.062;2023-04-08T08:57:58;10.70;99.90
7388;DHT22;3735;50.136;11.062;2023-04-08T09:03:24;11.80;99.90
7388;DHT22;3735;50.136;11.062;2023-04-08T09:05:59;12.60;99.90
7388;DHT22;3735;50.136;11.062;2023-04-08T09:11:16;13.40;99.90
7388;DHT22;3735;50.136;11.062;2023-04-08T09:13:44;13.20;99.90
7388;DHT22;3735;50.136;11.062;2023-04-08T09:16:12;12.70;99.90
7388;DHT22;3735;50.136;11.062;2023-04-08T09:18:41;12.10;99.90
7388;DHT22;3735;50.136;11.062;2023-04-08T09:21:09;11.50;99.90
7388;DHT22;3735;50.136;11.062;2023-04-08T09:26:13;10.70;99.90
7388;DHT22;3735;50.136;11.062;2023-04-08T09:29:03;10.50;99.90
7388;DHT22;3735;50.136;11.062;2023-04-08T09:31:33;10.30;99.90
7388;DHT22;3735;50.136;11.062;2023-04-08T09:34:12;10.30;99.90
7388;DHT22;3735;50.136;11.062;2023-04-08T09:36:40;10.40;99.90
7388;DHT22;3735;50.136;11.062;2023-04-08T09:39:07;10.60;99.90
7388;DHT22;3735;50.136;11.062;2023-04-08T09:41:34;10.50;99.90
7388;DHT22;3735;50.136;11.062;2023-04-08T09:44:09;10.40;99.90
7388;DHT22;3735;50.136;11.062;2023-04-08T09:49:26;10.10;99.90
7388;DHT22;3735;50.136;11.062;2023-04-08T09:52:03;10.40;99.90
7388;DHT22;3735;50.136;11.062;2023-04-08T09:57:54;11.30;99.90
7388;DHT22;3735;50.136;11.062;2023-04-08T10:00:29;11.40;99.90
7388;DHT22;3735;50.136;11.062;2023-04-08T10:05:57;10.90;99.90
7388;DHT22;3735;50.136;11.062;2023-04-08T10:08:26;10.50;99.90
7388;DHT22;3735;50.136;11.062;2023-04-08T10:10:53;10.30;99.90
7388;DHT22;3735;50.136;11.062;2023-04-08T10:13:21;10.10;99.90
7388;DHT22;3735;50.136;11.062;2023-04-08T10:15:47;10.10;99.90
7388;DHT22;3735;50.136;11.062;2023-04-08T10:20:43;10.30;99.90
7388;DHT22;3735;50.136;11.062;2023-04-08T10:23:15;10.40;99.90
7388;DHT22;3735;50.136;11.062;2023-04-08T10:25:45;10.40;99.90
7388;DHT22;3735;50.136;11.062;2023-04-08T10:30:48;11.20;99.90
7388;DHT22;3735;50.136;11.062;2023-04-08T10:33:16;11.20;99.90
7388;DHT22;3735;50.136;11.062;2023-04-08T10:38:24;11.60;99.90
7388;DHT22;3735;50.136;11.062;2023-04-08T10:40:50;11.50;99.90
7388;DHT22;3735;50.136;11.062;2023-04-08T10:43:17;11.80;99.90
7388;DHT22;3735;50.136;11.062;2023-04-08T10:45:43;12.10;99.90
7388;DHT22;3735;50.136;11.062;2023-04-08T10:48:21;12.10;99.90
7388;DHT22;3735;50.136;11.062;2023-04-08T10:53:33;11.90;99.90
7388;DHT22;3735;50.136;11.062;2023-04-08T10:56:26;12.40;99.90
7388;DHT22;3735;50.136;11.062;2023-04-08T10:58:54;12.90;99.90
7388;DHT22;3735;50.136;11.062;2023-04-08T11:01:24;12.80;99.90
7388;DHT22;3735;50.136;11.062;2023-04-08T11:03:50;12.80;99.90
7388;DHT22;3735;50.136;11.062;2023-04-08T11:06:17;12.80;99.90
7388;DHT22;3735;50.136;11.062;2023-04-08T11:08:44;13.80;99.90
7388;DHT22;3735;50.136;11.062;2023-04-08T11:11:10;14.70;99.90
7388;DHT22;3735;50.136;11.062;2023-04-08T11:13:39;15.40;99.90
7388;DHT22;3735;50.136;11.062;2023-04-08T11:16:06;16.70;99.90
7388;DHT22;3735;50.136;11.062;2023-04-08T11:18:34;17.10;99.90
7388;DHT22;3735;50.136;11.062;2023-04-08T11:21:09;16.80;99.90
7388;DHT22;3735;50.136;11.062;2023-04-08T11:23:35;16.60;99.90
7388;DHT22;3735;50.136;11.062;2023-04-08T11:26:01;16.60;99.90
7388;DHT22;3735;50.136;11.062;2023-04-08T11:28:28;16.30;99.90
7388;DHT22;3735;50.136;11.062;2023-04-08T11:30:55;15.60;99.90
7388;DHT22;3735;50.136;11.062;2023-04-08T11:33:24;14.80;99.90
7388;DHT22;3735;50.136;11.062;2023-04-08T11:35:53;13.90;99.90
7388;DHT22;3735;50.136;11.062;2023-04-08T11:38:22;13.00;99.90
7388;DHT22;3735;50.136;11.062;2023-04-08T11:40:56;12.40;99.90
7388;DHT22;3735;50.136;11.062;2023-04-08T11:43:23;11.70;99.90
7388;DHT22;3735;50.136;11.062;2023-04-08T11:45:49;11.30;99.90
7388;DHT22;3735;50.136;11.062;2023-04-08T11:48:16;11.10;99.90
7388;DHT22;3735;50.136;11.062;2023-04-08T11:50:43;11.20;99.90
7388;DHT22;3735;50.136;11.062;2023-04-08T11:53:24;11.30;99.90
7388;DHT22;3735;50.136;11.062;2023-04-08T11:55:50;11.10;99.90
7388;DHT22;3735;50.136;11.062;2023-04-08T11:58:17;10.80;99.90
7388;DHT22;3735;50.136;11.062;2023-04-08T12:00:43;10.60;99.90
7388;DHT22;3735;50.136;11.062;2023-04-08T12:03:10;10.40;99.90
7388;DHT22;3735;50.136;11.062;2023-04-08T12:05:37;10.20;99.90
7388;DHT22;3735;50.136;11.062;2023-04-08T12:08:03;10.10;99.90
7388;DHT22;3735;50.136;11.062;2023-04-08T12:10:29;10.30;99.90
7388;DHT22;3735;50.136;11.062;2023-04-08T12:12:55;10.50;99.90
7388;DHT22;3735;50.136;11.062;2023-04-08T12:15:20;10.60;99.90
7388;DHT22;3735;50.136;11.062;2023-04-08T12:17:46;10.70;99.90
7388;DHT22;3735;50.136;11.062;2023-04-08T12:20:12;10.70;99.90
7388;DHT22;3735;50.136;11.062;2023-04-08T12:22:38;10.60;99.90
7388;DHT22;3735;50.136;11.062;2023-04-08T12:25:05;10.60;99.90
7388;DHT22;3735;50.136;11.062;2023-04-08T12:27:31;10.60;99.90
7388;DHT22;3735;50.136;11.062;2023-04-08T12:30:00;10.60;99.90
7388;DHT22;3735;50.136;11.062;2023-04-08T12:32:27;10.60;99.90
7388;DHT22;3735;50.136;11.062;2023-04-08T12:34:53;10.50;99.90
7388;DHT22;3735;50.136;11.062;2023-04-08T12:37:20;10.50;99.90
7388;DHT22;3735;50.136;11.062;2023-04-08T12:39:46;10.30;99.90
7388;DHT22;3735;50.136;11.062;2023-04-08T12:42:12;10.20;99.90
7388;DHT22;3735;50.136;11.062;2023-04-08T12:44:38;10.00;99.90
7388;DHT22;3735;50.136;11.062;2023-04-08T12:47:04;9.80;99.90
7388;DHT22;3735;50.136;11.062;2023-04-08T12:49:30;9.60;99.90
7388;DHT22;3735;50.136;11.062;2023-04-08T12:51:56;9.70;99.90
7388;DHT22;3735;50.136;11.062;2023-04-08T12:54:22;9.60;99.90
7388;DHT22;3735;50.136;11.062;2023-04-08T12:56:47;9.80;99.90
7388;DHT22;3735;50.136;11.062;2023-04-08T12:59:13;9.90;99.90
7388;DHT22;3735;50.136;11.062;2023-04-08T13:01:39;10.10;99.90
7388;DHT22;3735;50.136;11.062;2023-04-08T13:04:05;10.20;99.90
7388;DHT22;3735;50.136;11.062;2023-04-08T13:06:31;10.20;99.90
7388;DHT22;3735;50.136;11.062;2023-04-08T13:08:57;10.20;99.90
7388;DHT22;3735;50.136;11.062;2023-04-08T13:11:23;10.10;99.90
7388;DHT22;3735;50.136;11.062;2023-04-08T13:13:48;9.90;99.90
7388;DHT22;3735;50.136;11.062;2023-04-08T13:16:15;9.80;99.90
7388;DHT22;3735;50.136;11.062;2023-04-08T13:18:41;9.60;99.90
7388;DHT22;3735;50.136;11.062;2023-04-08T13:21:07;9.40;99.90
7388;DHT22;3735;50.136;11.062;2023-04-08T13:23:33;9.30;99.90
7388;DHT22;3735;50.136;11.062;2023-04-08T13:25:59;9.30;99.90
7388;DHT22;3735;50.136;11.062;2023-04-08T13:28:26;9.40;99.90
7388;DHT22;3735;50.136;11.062;2023-04-08T13:30:51;9.40;99.90
7388;DHT22;3735;50.136;11.062;2023-04-08T13:33:18;9.60;99.90
7388;DHT22;3735;50.136;11.062;2023-04-08T13:35:44;9.70;99.90
7388;DHT22;3735;50.136;11.062;2023-04-08T13:38:10;9.80;99.90
7388;DHT22;3735;50.136;11.062;2023-04-08T13:40:35;9.80;99.90
7388;DHT22;3735;50.136;11.062;2023-04-08T13:43:01;9.80;99.90
7388;DHT22;3735;50.136;11.062;2023-04-08T13:45:27;9.80;99.90
7388;DHT22;3735;50.136;11.062;2023-04-08T13:47:53;9.80;99.90
7388;DHT22;3735;50.136;11.062;2023-04-08T13:50:19;9.90;99.90
7388;DHT22;3735;50.136;11.062;2023-04-08T13:52:45;9.80;99.90
7388;DHT22;3735;50.136;11.062;2023-04-08T13:55:11;9.70;99.90
7388;DHT22;3735;50.136;11.062;2023-04-08T13:57:36;9.60;99.90
7388;DHT22;3735;50.136;11.062;2023-04-08T14:00:02;9.60;99.90
7388;DHT22;3735;50.136;11.062;2023-04-08T14:02:29;9.80;99.90
7388;DHT22;3735;50.136;11.062;2023-04-08T14:04:56;9.80;99.90
7388;DHT22;3735;50.136;11.062;2023-04-08T14:07:22;9.80;99.90
7388;DHT22;3735;50.136;11.062;2023-04-08T14:09:47;9.80;99.90
7388;DHT22;3735;50.136;11.062;2023-04-08T14:12:13;9.90;99.90
7388;DHT22;3735;50.136;11.062;2023-04-08T14:14:39;9.90;99.90
7388;DHT22;3735;50.136;11.062;2023-04-08T14:17:05;10.10;99.90
7388;DHT22;3735;50.136;11.062;2023-04-08T14:19:30;10.20;99.90
7388;DHT22;3735;50.136;11.062;2023-04-08T14:21:56;10.20;99.90
7388;DHT22;3735;50.136;11.062;2023-04-08T14:24:22;10.30;99.90
7388;DHT22;3735;50.136;11.062;2023-04-08T14:26:47;10.30;99.90
7388;DHT22;3735;50.136;11.062;2023-04-08T14:29:14;10.40;99.90
7388;DHT22;3735;50.136;11.062;2023-04-08T14:31:39;10.40;99.90
7388;DHT22;3735;50.136;11.062;2023-04-08T14:34:05;10.50;99.90
7388;DHT22;3735;50.136;11.062;2023-04-08T14:36:31;10.50;99.90
7388;DHT22;3735;50.136;11.062;2023-04-08T14:38:57;10.60;99.90
7388;DHT22;3735;50.136;11.062;2023-04-08T14:41:23;10.50;99.90
7388;DHT22;3735;50.136;11.062;2023-04-08T14:43:51;10.50;99.90
7388;DHT22;3735;50.136;11.062;2023-04-08T14:46:18;10.50;99.90
7388;DHT22;3735;50.136;11.062;2023-04-08T14:48:44;10.50;99.90
7388;DHT22;3735;50.136;11.062;2023-04-08T14:51:10;10.40;99.90
7388;DHT22;3735;50.136;11.062;2023-04-08T14:53:36;10.40;99.90
7388;DHT22;3735;50.136;11.062;2023-04-08T14:56:02;10.30;99.90
7388;DHT22;3735;50.136;11.062;2023-04-08T14:58:28;10.40;99.90
7388;DHT22;3735;50.136;11.062;2023-04-08T15:00:54;10.80;99.90
7388;DHT22;3735;50.136;11.062;2023-04-08T15:03:20;11.40;99.90
7388;DHT22;3735;50.136;11.062;2023-04-08T15:05:46;12.00;99.90
7388;DHT22;3735;50.136;11.062;2023-04-08T15:08:13;12.70;99.90
7388;DHT22;3735;50.136;11.062;2023-04-08T15:10:39;13.30;99.90
7388;DHT22;3735;50.136;11.062;2023-04-08T15:13:04;14.10;99.90
7388;DHT22;3735;50.136;11.062;2023-04-08T15:15:30;14.90;99.90
7388;DHT22;3735;50.136;11.062;2023-04-08T15:17:56;14.50;99.90
7388;DHT22;3735;50.136;11.062;2023-04-08T15:20:22;13.30;99.90
7388;DHT22;3735;50.136;11.062;2023-04-08T15:22:47;12.50;99.90
7388;DHT22;3735;50.136;11.062;2023-04-08T15:25:13;12.00;99.90
7388;DHT22;3735;50.136;11.062;2023-04-08T15:27:40;11.50;99.90
7388;DHT22;3735;50.136;11.062;2023-04-08T15:30:07;10.90;99.90
7388;DHT22;3735;50.136;11.062;2023-04-08T15:32:33;10.40;99.90
7388;DHT22;3735;50.136;11.062;2023-04-08T15:34:59;10.00;99.90
7388;DHT22;3735;50.136;11.062;2023-04-08T15:37:25;9.80;99.90
7388;DHT22;3735;50.136;11.062;2023-04-08T15:39:51;9.70;99.90
7388;DHT22;3735;50.136;11.062;2023-04-08T15:42:20;9.70;99.90
7388;DHT22;3735;50.136;11.062;2023-04-08T15:44:47;9.60;99.90
7388;DHT22;3735;50.136;11.062;2023-04-08T15:47:13;9.70;99.90
7388;DHT22;3735;50.136;11.062;2023-04-08T15:49:39;9.70;99.90
7388;DHT22;3735;50.136;11.062;2023-04-08T15:52:05;9.80;99.90
7388;DHT22;3735;50.136;11.062;2023-04-08T15:54:34;9.90;99.90
7388;DHT22;3735;50.136;11.062;2023-04-08T15:57:00;10.00;99.90
7388;DHT22;3735;50.136;11.062;2023-04-08T15:59:29;10.10;99.90
7388;DHT22;3735;50.136;11.062;2023-04-08T16:01:55;10.10;99.90
7388;DHT22;3735;50.136;11.062;2023-04-08T16:04:21;10.00;99.90
7388;DHT22;3735;50.136;11.062;2023-04-08T16:06:47;9.90;99.90
7388;DHT22;3735;50.136;11.062;2023-04-08T16:09:13;9.80;99.90
7388;DHT22;3735;50.136;11.062;2023-04-08T16:11:39;9.70;99.90
7388;DHT22;3735;50.136;11.062;2023-04-08T16:14:06;9.70;99.90
7388;DHT22;3735;50.136;11.062;2023-04-08T16:16:31;9.70;99.90
7388;DHT22;3735;50.136;11.062;2023-04-08T16:18:57;9.60;99.90
7388;DHT22;3735;50.136;11.062;2023-04-08T16:21:24;9.50;99.90
7388;DHT22;3735;50.136;11.062;2023-04-08T16:23:50;9.40;99.90
7388;DHT22;3735;50.136;11.062;2023-04-08T16:26:15;9.30;99.90